sensor_id;sensor_type;location;lat;lon;timestamp;pressure;altitude;pressure_sealevel;temperature;humidity
74675;BME280;63200;48.810;12.352;2023-04-01T00:01:05;96128.97;;;7.36;68.06
74675;BME280;63200;48.810;12.352;2023-04-01T00:03:31;96134.75;;;7.29;68.12
74675;BME280;63200;48.810;12.352;2023-04-01T00:05:58;96135.78;;;7.33;68.15
74675;BME280;63200;48.810;12.352;2023-04-01T00:08:24;96108.94;;;7.09;68.96
74675;BME280;63200;48.810;12.352;2023-04-01T00:10:49;96123.25;;;7.24;68.36
74675;BME280;63200;48.810;12.352;2023-04-01T00:13:15;96133.06;;;7.33;67.81
74675;BME280;63200;48.810;12.352;2023-04-01T00:15:41;96128.88;;;7.41;67.54
74675;BME280;63200;48.810;12.352;2023-04-01T00:18:07;96140.19;;;7.43;67.43
74675;BME280;63200;48.810;12.352;2023-04-01T00:20:32;96132.38;;;7.42;67.43
74675;BME280;63200;48.810;12.352;2023-04-01T00:22:57;96129.75;;;7.37;67.82
74675;BME280;63200;48.810;12.352;2023-04-01T00:25:23;96121.06;;;7.26;68.11
74675;BME280;63200;48.810;12.352;2023-04-01T00:27:48;96126.88;;;7.33;68.04
74675;BME280;63200;48.810;12.352;2023-04-01T00:30:15;96108.94;;;7.09;68.22
74675;BME280;63200;48.810;12.352;2023-04-01T00:32:40;96116.13;;;7.14;68.24
74675;BME280;63200;48.810;12.352;2023-04-01T00:35:06;96132.44;;;7.23;67.94
74675;BME280;63200;48.810;12.352;2023-04-01T00:37:35;96128.53;;;7.15;68.52
74675;BME280;63200;48.810;12.352;2023-04-01T00:40:02;96116.84;;;6.87;68.36
74675;BME280;63200;48.810;12.352;2023-04-01T00:42:29;96127.28;;;7.07;68.25
74675;BME280;63200;48.810;12.352;2023-04-01T00:44:54;96130.78;;;7.08;68.37
74675;BME280;63200;48.810;12.352;2023-04-01T00:47:21;96131.09;;;7.06;68.61
74675;BME280;63200;48.810;12.352;2023-04-01T00:49:49;96126.69;;;7.10;68.88
74675;BME280;63200;48.810;12.352;2023-04-01T00:52:19;96134.22;;;7.13;68.66
74675;BME280;63200;48.810;12.352;2023-04-01T00:54:49;96138.41;;;7.20;68.25
74675;BME280;63200;48.810;12.352;2023-04-01T00:57:36;96142.94;;;7.24;68.57
74675;BME280;63200;48.810;12.352;2023-04-01T01:00:05;96137.25;;;7.26;68.20
74675;BME280;63200;48.810;12.352;2023-04-01T01:02:32;96140.75;;;7.26;68.36
74675;BME280;63200;48.810;12.352;2023-04-01T01:04:58;96128.06;;;7.27;68.32
74675;BME280;63200;48.810;12.352;2023-04-01T01:10:18;96137.03;;;7.22;68.46
74675;BME280;63200;48.810;12.352;2023-04-01T01:12:53;96136.09;;;7.13;68.86
74675;BME280;63200;48.810;12.352;2023-04-01T01:15:26;96131.00;;;7.11;69.37
74675;BME280;63200;48.810;12.352;2023-04-01T01:24:42;96128.09;;;7.08;69.03
74675;BME280;63200;48.810;12.352;2023-04-01T01:27:19;96132.16;;;7.24;68.01
74675;BME280;63200;48.810;12.352;2023-04-01T01:32:39;96119.88;;;7.32;67.18
74675;BME280;63200;48.810;12.352;2023-04-01T01:37:50;96125.31;;;7.13;68.17
74675;BME280;63200;48.810;12.352;2023-04-01T01:40:16;96125.69;;;7.06;68.43
74675;BME280;63200;48.810;12.352;2023-04-01T01:42:49;96120.81;;;7.08;68.10
74675;BME280;63200;48.810;12.352;2023-04-01T01:45:18;96126.06;;;6.99;68.38
74675;BME280;63200;48.810;12.352;2023-04-01T01:47:45;96100.06;;;6.90;68.52
74675;BME280;63200;48.810;12.352;2023-04-01T01:50:13;96105.69;;;6.93;68.05
74675;BME280;63200;48.810;12.352;2023-04-01T01:52:38;96117.59;;;7.06;68.04
74675;BME280;63200;48.810;12.352;2023-04-01T01:55:24;96119.44;;;6.92;68.59
74675;BME280;63200;48.810;12.352;2023-04-01T01:57:51;96115.25;;;6.86;68.66
74675;BME280;63200;48.810;12.352;2023-04-01T02:00:16;96119.25;;;6.88;68.75
74675;BME280;63200;48.810;12.352;2023-04-01T02:02:45;96080.41;;;6.70;68.28
74675;BME280;63200;48.810;12.352;2023-04-01T02:05:16;96061.59;;;6.65;68.44
74675;BME280;63200;48.810;12.352;2023-04-01T02:07:45;96111.09;;;7.07;68.18
74675;BME280;63200;48.810;12.352;2023-04-01T02:10:13;96108.53;;;7.16;67.73
74675;BME280;63200;48.810;12.352;2023-04-01T02:12:42;96068.56;;;6.85;68.43
74675;BME280;63200;48.810;12.352;2023-04-01T02:15:12;96106.78;;;7.06;68.67
74675;BME280;63200;48.810;12.352;2023-04-01T02:17:42;96117.25;;;6.94;69.04
74675;BME280;63200;48.810;12.352;2023-04-01T02:20:12;96127.63;;;6.87;69.23
74675;BME280;63200;48.810;12.352;2023-04-01T02:22:43;96128.22;;;6.83;69.31
74675;BME280;63200;48.810;12.352;2023-04-01T02:25:16;96121.66;;;6.90;69.03
74675;BME280;63200;48.810;12.352;2023-04-01T02:27:44;96116.41;;;6.79;69.07
74675;BME280;63200;48.810;12.352;2023-04-01T02:30:11;96134.13;;;6.86;69.40
74675;BME280;63200;48.810;12.352;2023-04-01T02:32:38;96112.16;;;6.73;69.45
74675;BME280;63200;48.810;12.352;2023-04-01T02:35:06;96135.22;;;6.84;69.59
74675;BME280;63200;48.810;12.352;2023-04-01T02:37:32;96130.91;;;6.83;69.52
74675;BME280;63200;48.810;12.352;2023-04-01T02:40:02;96139.28;;;6.82;69.32
74675;BME280;63200;48.810;12.352;2023-04-01T02:42:27;96140.38;;;6.81;69.64
74675;BME280;63200;48.810;12.352;2023-04-01T02:44:53;96138.72;;;6.66;70.13
74675;BME280;63200;48.810;12.352;2023-04-01T02:47:18;96142.50;;;6.65;70.61
74675;BME280;63200;48.810;12.352;2023-04-01T02:49:43;96144.72;;;6.63;70.30
74675;BME280;63200;48.810;12.352;2023-04-01T02:52:09;96148.97;;;6.64;70.25
74675;BME280;63200;48.810;12.352;2023-04-01T02:54:34;96151.47;;;6.60;70.47
74675;BME280;63200;48.810;12.352;2023-04-01T02:56:59;96157.31;;;6.67;70.14
74675;BME280;63200;48.810;12.352;2023-04-01T02:59:25;96158.31;;;6.72;70.25
74675;BME280;63200;48.810;12.352;2023-04-01T03:01:50;96156.94;;;6.74;70.60
74675;BME280;63200;48.810;12.352;2023-04-01T03:04:16;96158.63;;;6.70;70.72
74675;BME280;63200;48.810;12.352;2023-04-01T03:06:41;96160.28;;;6.66;70.47
74675;BME280;63200;48.810;12.352;2023-04-01T03:09:06;96164.38;;;6.63;70.66
74675;BME280;63200;48.810;12.352;2023-04-01T03:11:31;96170.34;;;6.60;70.45
74675;BME280;63200;48.810;12.352;2023-04-01T03:13:57;96161.59;;;6.69;70.14
74675;BME280;63200;48.810;12.352;2023-04-01T03:16:22;96167.44;;;6.76;69.97
74675;BME280;63200;48.810;12.352;2023-04-01T03:18:48;96166.41;;;6.72;70.29
74675;BME280;63200;48.810;12.352;2023-04-01T03:21:21;96105.56;;;6.27;70.41
74675;BME280;63200;48.810;12.352;2023-04-01T03:23:46;96168.44;;;6.61;70.67
74675;BME280;63200;48.810;12.352;2023-04-01T03:26:12;96171.75;;;6.58;70.54
74675;BME280;63200;48.810;12.352;2023-04-01T03:28:38;96172.22;;;6.60;70.66
74675;BME280;63200;48.810;12.352;2023-04-01T03:31:03;96186.91;;;6.54;70.95
74675;BME280;63200;48.810;12.352;2023-04-01T03:33:29;96139.50;;;6.28;70.95
74675;BME280;63200;48.810;12.352;2023-04-01T03:35:54;96182.00;;;6.56;70.63
74675;BME280;63200;48.810;12.352;2023-04-01T03:38:20;96178.81;;;6.54;70.69
74675;BME280;63200;48.810;12.352;2023-04-01T03:40:45;96174.28;;;6.49;70.90
74675;BME280;63200;48.810;12.352;2023-04-01T03:43:10;96178.00;;;6.53;70.85
74675;BME280;63200;48.810;12.352;2023-04-01T03:45:43;96183.88;;;6.36;71.11
74675;BME280;63200;48.810;12.352;2023-04-01T03:48:08;96183.50;;;6.43;71.12
74675;BME280;63200;48.810;12.352;2023-04-01T03:50:34;96187.25;;;6.47;70.70
74675;BME280;63200;48.810;12.352;2023-04-01T03:53:00;96184.63;;;6.42;70.65
74675;BME280;63200;48.810;12.352;2023-04-01T03:55:25;96186.19;;;6.43;70.62
74675;BME280;63200;48.810;12.352;2023-04-01T03:57:51;96186.06;;;6.53;70.74
74675;BME280;63200;48.810;12.352;2023-04-01T04:00:16;96191.69;;;6.57;70.26
74675;BME280;63200;48.810;12.352;2023-04-01T04:02:42;96186.19;;;6.67;70.55
74675;BME280;63200;48.810;12.352;2023-04-01T04:05:07;96190.31;;;6.59;70.45
74675;BME280;63200;48.810;12.352;2023-04-01T04:07:34;96192.00;;;6.55;70.41
74675;BME280;63200;48.810;12.352;2023-04-01T04:09:59;96181.78;;;6.52;70.54
74675;BME280;63200;48.810;12.352;2023-04-01T04:12:25;96177.19;;;6.53;70.15
74675;BME280;63200;48.810;12.352;2023-04-01T04:14:50;96179.44;;;6.45;70.67
74675;BME280;63200;48.810;12.352;2023-04-01T04:17:15;96188.53;;;6.49;70.00
74675;BME280;63200;48.810;12.352;2023-04-01T04:19:41;96185.28;;;6.53;70.12
74675;BME280;63200;48.810;12.352;2023-04-01T04:22:07;96182.13;;;6.45;70.05
74675;BME280;63200;48.810;12.352;2023-04-01T04:24:35;96195.34;;;6.47;70.03
74675;BME280;63200;48.810;12.352;2023-04-01T04:27:01;96187.59;;;6.40;70.58
74675;BME280;63200;48.810;12.352;2023-04-01T04:29:27;96197.88;;;6.38;70.54
74675;BME280;63200;48.810;12.352;2023-04-01T04:31:52;96199.84;;;6.32;70.80
74675;BME280;63200;48.810;12.352;2023-04-01T04:34:18;96195.41;;;6.42;70.50
74675;BME280;63200;48.810;12.352;2023-04-01T04:36:44;96204.22;;;6.47;70.62
74675;BME280;63200;48.810;12.352;2023-04-01T04:39:09;96199.00;;;6.56;70.54
74675;BME280;63200;48.810;12.352;2023-04-01T04:41:37;96199.50;;;6.58;70.54
74675;BME280;63200;48.810;12.352;2023-04-01T04:44:02;96200.44;;;6.67;69.83
74675;BME280;63200;48.810;12.352;2023-04-01T04:46:27;96206.38;;;6.70;70.42
74675;BME280;63200;48.810;12.352;2023-04-01T04:48:53;96211.25;;;6.67;70.47
74675;BME280;63200;48.810;12.352;2023-04-01T04:51:19;96206.13;;;6.66;70.61
74675;BME280;63200;48.810;12.352;2023-04-01T04:53:46;96207.69;;;6.72;71.15
74675;BME280;63200;48.810;12.352;2023-04-01T04:56:12;96208.91;;;6.61;71.67
74675;BME280;63200;48.810;12.352;2023-04-01T04:58:38;96212.69;;;6.60;71.88
74675;BME280;63200;48.810;12.352;2023-04-01T05:01:12;96215.69;;;6.58;71.75
74675;BME280;63200;48.810;12.352;2023-04-01T05:03:38;96207.88;;;6.57;71.74
74675;BME280;63200;48.810;12.352;2023-04-01T05:06:05;96209.91;;;6.65;71.07
74675;BME280;63200;48.810;12.352;2023-04-01T05:08:31;96209.69;;;6.61;70.80
74675;BME280;63200;48.810;12.352;2023-04-01T05:10:57;96207.53;;;6.63;70.41
74675;BME280;63200;48.810;12.352;2023-04-01T05:13:23;96217.66;;;6.72;69.92
74675;BME280;63200;48.810;12.352;2023-04-01T05:15:48;96213.06;;;6.72;69.65
74675;BME280;63200;48.810;12.352;2023-04-01T05:18:13;96222.13;;;6.81;69.68
74675;BME280;63200;48.810;12.352;2023-04-01T05:20:39;96222.13;;;6.81;69.71
74675;BME280;63200;48.810;12.352;2023-04-01T05:23:10;96226.47;;;6.77;69.87
74675;BME280;63200;48.810;12.352;2023-04-01T05:25:37;96220.56;;;6.75;69.59
74675;BME280;63200;48.810;12.352;2023-04-01T05:28:03;96223.63;;;6.69;69.60
74675;BME280;63200;48.810;12.352;2023-04-01T05:30:28;96225.38;;;6.59;69.62
74675;BME280;63200;48.810;12.352;2023-04-01T05:32:53;96220.34;;;6.72;69.47
74675;BME280;63200;48.810;12.352;2023-04-01T05:35:19;96198.13;;;6.61;69.61
74675;BME280;63200;48.810;12.352;2023-04-01T05:37:44;96223.34;;;6.89;68.86
74675;BME280;63200;48.810;12.352;2023-04-01T05:40:10;96212.47;;;6.94;68.48
74675;BME280;63200;48.810;12.352;2023-04-01T05:42:35;96225.16;;;7.32;67.77
74675;BME280;63200;48.810;12.352;2023-04-01T05:45:00;96233.28;;;7.65;67.16
74675;BME280;63200;48.810;12.352;2023-04-01T05:47:26;96113.09;;;7.34;65.14
74675;BME280;63200;48.810;12.352;2023-04-01T05:49:51;96235.34;;;8.29;64.75
74675;BME280;63200;48.810;12.352;2023-04-01T05:52:16;96228.25;;;7.58;66.04
74675;BME280;63200;48.810;12.352;2023-04-01T05:54:42;96222.16;;;7.33;66.60
74675;BME280;63200;48.810;12.352;2023-04-01T05:57:07;96227.84;;;7.32;67.62
74675;BME280;63200;48.810;12.352;2023-04-01T05:59:32;96210.56;;;7.14;67.64
74675;BME280;63200;48.810;12.352;2023-04-01T06:02:00;96228.72;;;7.27;67.58
74675;BME280;63200;48.810;12.352;2023-04-01T06:04:28;96235.81;;;7.23;67.79
74675;BME280;63200;48.810;12.352;2023-04-01T06:06:57;96216.69;;;7.20;67.50
74675;BME280;63200;48.810;12.352;2023-04-01T06:09:27;96231.19;;;7.43;67.22
74675;BME280;63200;48.810;12.352;2023-04-01T06:14:53;96241.09;;;7.47;67.30
74675;BME280;63200;48.810;12.352;2023-04-01T06:26:20;96230.47;;;7.70;66.59
74675;BME280;63200;48.810;12.352;2023-04-01T06:31:43;96231.13;;;7.95;66.14
74675;BME280;63200;48.810;12.352;2023-04-01T06:34:25;96248.53;;;7.89;65.82
74675;BME280;63200;48.810;12.352;2023-04-01T06:45:37;96235.00;;;8.49;64.90
74675;BME280;63200;48.810;12.352;2023-04-01T06:48:19;96234.44;;;8.20;64.83
74675;BME280;63200;48.810;12.352;2023-04-01T06:53:21;96250.56;;;8.11;65.07
74675;BME280;63200;48.810;12.352;2023-04-01T06:55:55;96240.63;;;7.92;66.45
74675;BME280;63200;48.810;12.352;2023-04-01T06:58:25;96247.97;;;8.20;65.16
74675;BME280;63200;48.810;12.352;2023-04-01T07:00:56;96239.06;;;8.19;65.76
74675;BME280;63200;48.810;12.352;2023-04-01T07:03:45;96233.03;;;8.08;65.68
74675;BME280;63200;48.810;12.352;2023-04-01T07:09:27;96233.75;;;8.28;64.58
74675;BME280;63200;48.810;12.352;2023-04-01T07:12:04;96232.75;;;8.10;64.83
74675;BME280;63200;48.810;12.352;2023-04-01T07:14:39;96239.75;;;8.25;65.00
74675;BME280;63200;48.810;12.352;2023-04-01T07:17:15;96236.97;;;8.30;64.96
74675;BME280;63200;48.810;12.352;2023-04-01T07:19:50;96237.78;;;8.44;64.24
74675;BME280;63200;48.810;12.352;2023-04-01T07:24:52;96222.84;;;8.33;63.97
74675;BME280;63200;48.810;12.352;2023-04-01T07:27:18;96234.34;;;8.66;64.41
74675;BME280;63200;48.810;12.352;2023-04-01T07:29:44;96223.75;;;8.56;62.36
74675;BME280;63200;48.810;12.352;2023-04-01T07:32:39;96230.34;;;8.78;63.50
74675;BME280;63200;48.810;12.352;2023-04-01T07:35:15;96238.88;;;8.71;62.51
74675;BME280;63200;48.810;12.352;2023-04-01T07:37:59;96227.09;;;9.04;62.89
74675;BME280;63200;48.810;12.352;2023-04-01T07:46:09;96232.59;;;9.35;62.33
74675;BME280;63200;48.810;12.352;2023-04-01T07:51:24;96235.88;;;9.69;60.54
74675;BME280;63200;48.810;12.352;2023-04-01T07:54:02;96198.94;;;9.50;60.71
74675;BME280;63200;48.810;12.352;2023-04-01T07:56:51;96241.88;;;9.65;58.51
74675;BME280;63200;48.810;12.352;2023-04-01T07:59:38;96223.22;;;9.64;59.75
74675;BME280;63200;48.810;12.352;2023-04-01T08:05:00;96221.38;;;10.36;58.11
74675;BME280;63200;48.810;12.352;2023-04-01T08:12:48;96226.72;;;11.90;54.74
74675;BME280;63200;48.810;12.352;2023-04-01T08:18:53;96229.31;;;12.43;53.25
74675;BME280;63200;48.810;12.352;2023-04-01T08:21:23;96217.13;;;11.93;53.26
74675;BME280;63200;48.810;12.352;2023-04-01T08:23:52;96237.47;;;11.95;54.59
74675;BME280;63200;48.810;12.352;2023-04-01T08:26:30;96232.69;;;12.40;53.72
74675;BME280;63200;48.810;12.352;2023-04-01T08:29:01;96226.00;;;11.55;52.64
74675;BME280;63200;48.810;12.352;2023-04-01T08:34:19;96231.75;;;11.27;55.08
74675;BME280;63200;48.810;12.352;2023-04-01T08:36:52;96228.41;;;11.04;56.44
74675;BME280;63200;48.810;12.352;2023-04-01T08:42:10;96219.50;;;10.45;55.67
74675;BME280;63200;48.810;12.352;2023-04-01T08:45:07;96213.72;;;11.05;53.34
74675;BME280;63200;48.810;12.352;2023-04-01T08:50:24;96212.84;;;11.65;52.38
74675;BME280;63200;48.810;12.352;2023-04-01T08:53:18;96225.75;;;12.04;50.15
74675;BME280;63200;48.810;12.352;2023-04-01T09:06:40;96191.81;;;11.01;53.19
74675;BME280;63200;48.810;12.352;2023-04-01T09:20:39;96209.34;;;10.60;54.13
74675;BME280;63200;48.810;12.352;2023-04-01T09:44:34;96208.28;;;11.48;54.58
74675;BME280;63200;48.810;12.352;2023-04-01T10:04:02;96190.97;;;11.62;52.29
74675;BME280;63200;48.810;12.352;2023-04-01T10:17:50;96225.25;;;12.10;51.88
74675;BME280;63200;48.810;12.352;2023-04-01T10:20:31;96217.84;;;12.28;52.91
74675;BME280;63200;48.810;12.352;2023-04-01T10:37:32;96205.53;;;12.22;52.34
74675;BME280;63200;48.810;12.352;2023-04-01T10:45:46;96186.66;;;11.70;53.18
74675;BME280;63200;48.810;12.352;2023-04-01T10:51:24;96188.38;;;11.83;53.11
74675;BME280;63200;48.810;12.352;2023-04-01T10:57:01;96196.91;;;11.46;54.92
74675;BME280;63200;48.810;12.352;2023-04-01T11:16:15;96191.81;;;10.83;55.48
74675;BME280;63200;48.810;12.352;2023-04-01T11:26:37;96183.34;;;10.94;57.50
74675;BME280;63200;48.810;12.352;2023-04-01T11:37:25;96190.06;;;11.31;57.47
74675;BME280;63200;48.810;12.352;2023-04-01T11:48:09;96181.41;;;10.86;58.19
74675;BME280;63200;48.810;12.352;2023-04-01T11:51:12;96185.75;;;11.04;57.71
74675;BME280;63200;48.810;12.352;2023-04-01T12:02:29;96195.34;;;10.93;56.63
74675;BME280;63200;48.810;12.352;2023-04-01T12:07:50;96188.94;;;11.15;56.99
74675;BME280;63200;48.810;12.352;2023-04-01T12:10:19;96196.28;;;10.97;57.46
74675;BME280;63200;48.810;12.352;2023-04-01T12:15:56;96213.53;;;10.83;61.16
74675;BME280;63200;48.810;12.352;2023-04-01T12:26:00;96238.31;;;8.97;64.59
74675;BME280;63200;48.810;12.352;2023-04-01T12:36:52;96232.03;;;9.47;65.16
74675;BME280;63200;48.810;12.352;2023-04-01T12:45:26;96247.09;;;9.16;68.62
74675;BME280;63200;48.810;12.352;2023-04-01T12:48:57;96253.69;;;9.24;68.76
74675;BME280;63200;48.810;12.352;2023-04-01T13:00:24;96245.78;;;8.77;69.85
74675;BME280;63200;48.810;12.352;2023-04-01T13:05:24;96239.44;;;8.82;69.59
74675;BME280;63200;48.810;12.352;2023-04-01T13:08:00;96233.34;;;8.76;71.21
74675;BME280;63200;48.810;12.352;2023-04-01T13:10:41;96210.94;;;8.62;68.41
74675;BME280;63200;48.810;12.352;2023-04-01T13:13:16;96246.38;;;8.74;68.29
74675;BME280;63200;48.810;12.352;2023-04-01T13:22:09;96217.53;;;8.56;69.84
74675;BME280;63200;48.810;12.352;2023-04-01T13:24:58;96247.00;;;8.71;69.62
74675;BME280;63200;48.810;12.352;2023-04-01T13:27:43;96246.72;;;8.59;71.16
74675;BME280;63200;48.810;12.352;2023-04-01T13:32:47;96211.44;;;8.50;71.55
74675;BME280;63200;48.810;12.352;2023-04-01T13:41:30;96257.69;;;8.21;71.88
74675;BME280;63200;48.810;12.352;2023-04-01T13:43:39;96241.56;;;8.29;72.79
74675;BME280;63200;48.810;12.352;2023-04-01T13:49:03;96242.34;;;8.44;72.58
74675;BME280;63200;48.810;12.352;2023-04-01T13:51:52;96253.19;;;8.44;72.71
74675;BME280;63200;48.810;12.352;2023-04-01T13:55:00;96259.41;;;8.72;71.93
74675;BME280;63200;48.810;12.352;2023-04-01T13:57:43;96242.63;;;8.98;72.11
74675;BME280;63200;48.810;12.352;2023-04-01T14:02:46;96252.75;;;9.06;71.49
74675;BME280;63200;48.810;12.352;2023-04-01T14:05:32;96252.81;;;8.50;73.26
74675;BME280;63200;48.810;12.352;2023-04-01T14:09:25;96251.50;;;8.76;72.40
74675;BME280;63200;48.810;12.352;2023-04-01T14:11:36;96247.94;;;9.03;71.02
74675;BME280;63200;48.810;12.352;2023-04-01T14:17:09;96245.84;;;9.00;72.53
74675;BME280;63200;48.810;12.352;2023-04-01T14:22:23;96253.50;;;8.84;71.81
74675;BME280;63200;48.810;12.352;2023-04-01T14:28:09;96249.63;;;9.13;71.60
74675;BME280;63200;48.810;12.352;2023-04-01T14:30:45;96247.38;;;9.29;70.87
74675;BME280;63200;48.810;12.352;2023-04-01T14:33:34;96221.75;;;8.76;72.24
74675;BME280;63200;48.810;12.352;2023-04-01T14:36:29;96255.47;;;8.78;72.76
74675;BME280;63200;48.810;12.352;2023-04-01T14:39:15;96218.44;;;8.37;73.11
74675;BME280;63200;48.810;12.352;2023-04-01T14:41:56;96256.00;;;8.66;73.91
74675;BME280;63200;48.810;12.352;2023-04-01T14:50:13;96247.53;;;8.45;73.15
74675;BME280;63200;48.810;12.352;2023-04-01T14:52:43;96231.34;;;8.26;74.42
74675;BME280;63200;48.810;12.352;2023-04-01T14:55:28;96241.34;;;8.40;74.20
74675;BME280;63200;48.810;12.352;2023-04-01T14:58:09;96265.75;;;8.54;73.93
74675;BME280;63200;48.810;12.352;2023-04-01T15:00:50;96232.34;;;8.30;73.82
74675;BME280;63200;48.810;12.352;2023-04-01T15:03:26;96242.75;;;8.37;71.62
74675;BME280;63200;48.810;12.352;2023-04-01T15:12:38;96265.94;;;8.85;72.17
74675;BME280;63200;48.810;12.352;2023-04-01T15:20:56;96264.84;;;9.09;69.54
74675;BME280;63200;48.810;12.352;2023-04-01T15:27:00;96268.94;;;9.20;69.77
74675;BME280;63200;48.810;12.352;2023-04-01T15:32:21;96270.03;;;9.19;70.85
74675;BME280;63200;48.810;12.352;2023-04-01T15:37:54;96236.19;;;9.08;70.26
74675;BME280;63200;48.810;12.352;2023-04-01T15:40:37;96263.91;;;9.27;70.16
74675;BME280;63200;48.810;12.352;2023-04-01T15:48:46;96279.72;;;8.97;70.91
74675;BME280;63200;48.810;12.352;2023-04-01T15:51:51;96278.75;;;8.93;70.87
74675;BME280;63200;48.810;12.352;2023-04-01T15:57:08;96287.88;;;8.70;72.11
74675;BME280;63200;48.810;12.352;2023-04-01T15:59:51;96287.06;;;8.69;71.62
74675;BME280;63200;48.810;12.352;2023-04-01T16:02:35;96287.25;;;8.73;72.11
74675;BME280;63200;48.810;12.352;2023-04-01T16:05:52;96282.25;;;8.66;72.48
74675;BME280;63200;48.810;12.352;2023-04-01T16:16:07;96295.78;;;8.66;71.56
74675;BME280;63200;48.810;12.352;2023-04-01T16:21:46;96296.78;;;8.70;71.64
74675;BME280;63200;48.810;12.352;2023-04-01T16:26:53;96298.91;;;8.59;73.14
74675;BME280;63200;48.810;12.352;2023-04-01T16:29:33;96299.69;;;8.60;73.35
74675;BME280;63200;48.810;12.352;2023-04-01T16:35:21;96306.91;;;8.64;72.79
74675;BME280;63200;48.810;12.352;2023-04-01T16:37:52;96299.09;;;8.49;73.09
74675;BME280;63200;48.810;12.352;2023-04-01T16:40:40;96310.72;;;8.49;72.93
74675;BME280;63200;48.810;12.352;2023-04-01T16:43:16;96299.25;;;8.39;73.28
74675;BME280;63200;48.810;12.352;2023-04-01T16:48:49;96311.38;;;8.41;73.88
74675;BME280;63200;48.810;12.352;2023-04-01T16:51:18;96283.63;;;8.22;74.40
74675;BME280;63200;48.810;12.352;2023-04-01T16:53:49;96306.34;;;8.34;74.50
74675;BME280;63200;48.810;12.352;2023-04-01T16:56:25;96319.59;;;8.36;73.95
74675;BME280;63200;48.810;12.352;2023-04-01T16:59:06;96323.97;;;8.32;74.45
74675;BME280;63200;48.810;12.352;2023-04-01T17:01:57;96296.63;;;8.20;74.67
74675;BME280;63200;48.810;12.352;2023-04-01T17:04:32;96306.84;;;8.23;74.61
74675;BME280;63200;48.810;12.352;2023-04-01T17:09:53;96330.91;;;8.24;74.34
74675;BME280;63200;48.810;12.352;2023-04-01T17:15:13;96332.47;;;8.11;74.78
74675;BME280;63200;48.810;12.352;2023-04-01T17:39:46;96355.25;;;8.05;74.48
74675;BME280;63200;48.810;12.352;2023-04-01T17:42:39;96365.84;;;8.01;74.44
74675;BME280;63200;48.810;12.352;2023-04-01T17:45:18;96365.75;;;7.93;74.95
74675;BME280;63200;48.810;12.352;2023-04-01T17:48:14;96367.75;;;8.01;75.05
74675;BME280;63200;48.810;12.352;2023-04-01T17:56:25;96373.25;;;7.96;75.79
74675;BME280;63200;48.810;12.352;2023-04-01T18:01:48;96387.44;;;7.88;75.70
74675;BME280;63200;48.810;12.352;2023-04-01T18:04:40;96390.72;;;7.84;76.28
74675;BME280;63200;48.810;12.352;2023-04-01T18:13:12;96394.22;;;7.85;76.58
74675;BME280;63200;48.810;12.352;2023-04-01T18:15:53;96396.13;;;7.84;75.81
74675;BME280;63200;48.810;12.352;2023-04-01T18:24:16;96400.50;;;7.80;75.22
74675;BME280;63200;48.810;12.352;2023-04-01T18:26:49;96398.16;;;7.74;75.33
74675;BME280;63200;48.810;12.352;2023-04-01T18:31:48;96411.53;;;7.84;75.28
74675;BME280;63200;48.810;12.352;2023-04-01T18:34:20;96417.56;;;7.95;75.63
74675;BME280;63200;48.810;12.352;2023-04-01T18:37:02;96415.81;;;8.04;74.95
74675;BME280;63200;48.810;12.352;2023-04-01T18:39:42;96402.97;;;7.96;75.12
74675;BME280;63200;48.810;12.352;2023-04-01T18:50:38;96437.09;;;7.92;76.17
74675;BME280;63200;48.810;12.352;2023-04-01T18:55:53;96428.25;;;7.86;76.64
74675;BME280;63200;48.810;12.352;2023-04-01T18:58:27;96436.56;;;7.90;76.26
74675;BME280;63200;48.810;12.352;2023-04-01T19:06:43;96441.19;;;7.89;75.93
74675;BME280;63200;48.810;12.352;2023-04-01T19:14:42;96451.94;;;7.75;75.12
74675;BME280;63200;48.810;12.352;2023-04-01T19:20:25;96437.91;;;7.73;75.62
74675;BME280;63200;48.810;12.352;2023-04-01T19:23:17;96456.22;;;7.76;75.43
74675;BME280;63200;48.810;12.352;2023-04-01T19:25:51;96456.22;;;7.76;75.56
74675;BME280;63200;48.810;12.352;2023-04-01T19:30:55;96465.78;;;7.88;75.25
74675;BME280;63200;48.810;12.352;2023-04-01T19:33:31;96412.75;;;7.54;75.37
74675;BME280;63200;48.810;12.352;2023-04-01T19:36:16;96466.28;;;7.90;75.06
74675;BME280;63200;48.810;12.352;2023-04-01T19:39:05;96471.13;;;7.93;75.10
74675;BME280;63200;48.810;12.352;2023-04-01T19:41:36;96472.94;;;7.78;75.42
74675;BME280;63200;48.810;12.352;2023-04-01T19:46:49;96472.88;;;7.83;75.18
74675;BME280;63200;48.810;12.352;2023-04-01T19:49:50;96474.69;;;7.69;75.69
74675;BME280;63200;48.810;12.352;2023-04-01T19:52:28;96476.56;;;7.68;75.79
74675;BME280;63200;48.810;12.352;2023-04-01T19:57:52;96468.75;;;7.48;75.19
74675;BME280;63200;48.810;12.352;2023-04-01T20:00:25;96484.59;;;7.55;75.63
74675;BME280;63200;48.810;12.352;2023-04-01T20:05:47;96455.66;;;7.36;75.52
74675;BME280;63200;48.810;12.352;2023-04-01T20:08:33;96436.88;;;7.26;75.63
74675;BME280;63200;48.810;12.352;2023-04-01T20:11:38;96492.63;;;7.60;75.33
74675;BME280;63200;48.810;12.352;2023-04-01T20:17:07;96495.09;;;7.56;75.41
74675;BME280;63200;48.810;12.352;2023-04-01T20:19:41;96461.34;;;7.34;75.49
74675;BME280;63200;48.810;12.352;2023-04-01T20:22:24;96481.00;;;7.40;75.50
74675;BME280;63200;48.810;12.352;2023-04-01T20:24:57;96498.03;;;7.60;74.62
74675;BME280;63200;48.810;12.352;2023-04-01T20:27:27;96502.28;;;7.66;75.07
74675;BME280;63200;48.810;12.352;2023-04-01T20:35:31;96500.16;;;7.63;75.05
74675;BME280;63200;48.810;12.352;2023-04-01T20:41:20;96503.22;;;7.56;74.47
74675;BME280;63200;48.810;12.352;2023-04-01T20:46:22;96508.78;;;7.65;74.67
74675;BME280;63200;48.810;12.352;2023-04-01T20:49:15;96513.09;;;7.66;74.38
74675;BME280;63200;48.810;12.352;2023-04-01T20:52:07;96503.59;;;7.68;74.67
74675;BME280;63200;48.810;12.352;2023-04-01T20:57:23;96506.66;;;7.62;74.31
74675;BME280;63200;48.810;12.352;2023-04-01T21:00:23;96506.94;;;7.60;74.06